Time;durP1;ratioP1;P1;durP2;ratioP2;P2;SDS_P1;SDS_P2;PMS_P1;PMS_P2;Temp;Humidity;BMP_temperature;BMP_pressure;BME280_temperature;BME280_humidity;BME280_pressure;Samples;Min_cycle;Max_cycle;Signal;HPM_P1;HPM_P2
2022/02/23 00:02:10;;;;;;;12.63;2.45;;;;;;;7.41;100.00;101004.59;20906259;28;20045;-72
2022/02/23 00:12:13;;;;;;;12.50;2.72;;;;;;;7.31;100.00;101027.97;20905003;28;20757;-71
2022/02/23 00:22:14;;;;;;;12.88;2.42;;;;;;;7.32;100.00;101035.78;20903660;28;20455;-72
2022/02/23 00:32:17;;;;;;;8.07;2.20;;;;;;;7.38;100.00;101045.41;20902243;28;20049;-71
2022/02/23 00:42:20;;;;;;;7.85;2.20;;;;;;;7.37;100.00;101057.53;20904048;28;20045;-72
2022/02/23 00:52:23;;;;;;;10.13;2.47;;;;;;;7.45;100.00;101053.28;20904034;28;20485;-73
2022/02/23 01:02:26;;;;;;;10.35;2.67;;;;;;;7.56;100.00;101081.13;20902705;28;20037;-72
2022/02/23 01:12:28;;;;;;;11.85;2.05;;;;;;;6.87;100.00;101145.63;20904756;28;20060;-73
2022/02/23 01:22:31;;;;;;;6.07;1.50;;;;;;;6.54;100.00;101152.16;20899626;28;20053;-73
2022/02/23 01:32:34;;;;;;;5.85;1.27;;;;;;;6.48;100.00;101162.50;20898832;28;20189;-74
2022/02/23 01:42:35;;;;;;;6.80;1.35;;;;;;;6.40;100.00;101187.53;20899205;28;20499;-74
2022/02/23 01:52:39;;;;;;;7.30;1.70;;;;;;;6.36;100.00;101189.19;20900080;28;20102;-75
2022/02/23 02:02:43;;;;;;;8.98;1.50;;;;;;;6.34;100.00;101197.84;20898848;28;20052;-77
2022/02/23 02:12:45;;;;;;;6.28;1.38;;;;;;;6.29;100.00;101212.50;20899035;28;20147;-74
2022/02/23 02:22:46;;;;;;;6.30;1.80;;;;;;;6.21;100.00;101229.72;20898359;28;20055;-74
2022/02/23 02:32:50;;;;;;;6.65;1.50;;;;;;;6.07;100.00;101250.28;20895925;28;20571;-74
2022/02/23 02:42:52;;;;;;;11.43;2.10;;;;;;;6.03;100.00;101251.97;20898777;28;20465;-74
2022/02/23 02:52:55;;;;;;;8.27;2.00;;;;;;;6.00;100.00;101270.13;20904848;28;20056;-73
2022/02/23 03:02:58;;;;;;;7.65;1.83;;;;;;;5.96;100.00;101262.25;20909417;28;20049;-73
2022/02/23 03:13:00;;;;;;;5.43;1.73;;;;;;;5.81;100.00;101271.50;20906503;28;20148;-72
2022/02/23 03:23:03;;;;;;;8.73;1.92;;;;;;;5.73;100.00;101280.88;20906121;28;20052;-72
2022/02/23 03:33:06;;;;;;;7.65;1.75;;;;;;;5.67;100.00;101309.34;20902889;28;20049;-73
2022/02/23 03:43:09;;;;;;;10.70;1.52;;;;;;;5.48;100.00;101321.09;20900991;28;20528;-73
2022/02/23 03:53:11;;;;;;;7.55;2.10;;;;;;;5.16;100.00;101336.00;20903230;28;20056;-73
2022/02/23 04:03:13;;;;;;;8.63;2.10;;;;;;;5.04;100.00;101361.72;20867549;28;1028384;-72
2022/02/23 04:13:16;;;;;;;5.22;1.40;;;;;;;4.83;100.00;101372.47;20906388;28;20075;-73
2022/02/23 04:23:19;;;;;;;7.15;1.73;;;;;;;4.64;100.00;101397.97;20905296;28;20110;-74
2022/02/23 04:33:21;;;;;;;7.45;2.60;;;;;;;4.48;100.00;101423.50;20885340;28;20425;-73
2022/02/23 04:43:24;;;;;;;10.77;2.05;;;;;;;4.48;100.00;101414.00;20904858;28;20045;-73
2022/02/23 04:53:26;;;;;;;6.75;2.15;;;;;;;4.36;100.00;101412.00;20900658;28;20553;-73
2022/02/23 05:03:29;;;;;;;10.57;3.72;;;;;;;4.07;100.00;101424.19;20901930;28;20045;-72
2022/02/23 05:13:33;;;;;;;10.13;3.63;;;;;;;3.88;100.00;101436.56;20902511;28;20076;-72
2022/02/23 05:23:35;;;;;;;18.92;7.75;;;;;;;3.91;100.00;101441.84;20900932;28;20447;-72
2022/02/23 05:33:37;;;;;;;8.50;3.10;;;;;;;3.58;100.00;101469.41;20898567;28;20045;-72
2022/02/23 05:43:40;;;;;;;11.60;5.60;;;;;;;3.47;100.00;101481.16;20900249;28;20080;-72
2022/02/23 05:53:43;;;;;;;16.90;6.63;;;;;;;3.66;100.00;101507.63;20900153;28;20053;-73
2022/02/23 06:03:45;;;;;;;11.85;3.80;;;;;;;3.51;100.00;101518.38;20899094;28;20045;-72
2022/02/23 06:13:51;;;;;;;7.28;2.80;;;;;;;3.36;100.00;101536.03;20900909;28;20421;-72
2022/02/23 06:23:53;;;;;;;7.43;2.60;;;;;;;3.27;100.00;101553.03;20899489;28;20494;-73
2022/02/23 06:33:55;;;;;;;13.43;2.90;;;;;;;3.21;100.00;101565.78;20912536;28;20049;-73
2022/02/23 06:43:57;;;;;;;8.15;2.78;;;;;;;3.12;100.00;101570.63;20914657;28;20072;-73
2022/02/23 06:53:58;;;;;;;9.55;4.13;;;;;;;3.39;100.00;101585.28;20913285;28;20063;-73
2022/02/23 07:04:02;;;;;;;13.93;5.40;;;;;;;3.79;100.00;101593.50;20912291;28;20052;-74
2022/02/23 07:14:06;;;;;;;19.80;10.05;;;;;;;4.00;100.00;101600.16;20912612;28;20479;-73
2022/02/23 07:24:08;;;;;;;22.20;11.63;;;;;;;4.17;100.00;101617.13;20909802;28;20143;-73
2022/02/23 07:34:10;;;;;;;18.20;10.15;;;;;;;4.52;100.00;101619.84;20907318;28;20045;-73
2022/02/23 07:44:13;;;;;;;63.72;27.67;;;;;;;4.70;100.00;101625.56;20907400;28;20135;-73
2022/02/23 07:54:16;;;;;;;13.48;7.00;;;;;;;4.79;100.00;101633.59;20903715;28;20127;-73
2022/02/23 08:04:20;;;;;;;16.88;6.80;;;;;;;5.01;100.00;101627.25;20922389;28;20529;-72
2022/02/23 08:14:22;;;;;;;15.83;7.87;;;;;;;5.26;100.00;101623.56;20935124;28;20051;-73
2022/02/23 08:24:26;;;;;;;21.73;8.90;;;;;;;5.51;100.00;101629.38;20957457;28;20386;-72
2022/02/23 08:34:28;;;;;;;17.30;7.78;;;;;;;5.81;100.00;101632.75;20978857;28;20040;-73
2022/02/23 08:44:30;;;;;;;16.23;7.50;;;;;;;6.10;100.00;101624.75;20980684;28;20049;-72
2022/02/23 08:54:32;;;;;;;12.95;5.45;;;;;;;6.34;100.00;101632.22;20978087;28;20458;-72
2022/02/23 09:04:33;;;;;;;15.50;6.10;;;;;;;6.50;100.00;101630.81;20977766;28;20494;-72
2022/02/23 09:14:36;;;;;;;16.13;4.53;;;;;;;6.62;100.00;101633.66;20977298;28;20060;-71
2022/02/23 09:24:38;;;;;;;13.55;3.65;;;;;;;6.78;100.00;101627.03;20976351;28;20207;-72
2022/02/23 09:34:41;;;;;;;14.55;3.95;;;;;;;6.81;100.00;101627.97;20975811;28;20056;-71
2022/02/23 09:44:43;;;;;;;11.93;2.80;;;;;;;7.08;100.00;101624.13;20976801;28;20048;-71
2022/02/23 09:55:05;;;;;;;13.18;3.40;;;;;;;7.43;100.00;101616.94;20977011;28;20052;-71
2022/02/23 10:05:09;;;;;;;10.48;2.95;;;;;;;7.42;100.00;101625.56;20978101;22;20053;-72
2022/02/23 10:15:18;;;;;;;13.03;3.23;;;;;;;7.65;100.00;101615.53;20971847;28;20102;-70
2022/02/23 10:25:28;;;;;;;12.73;3.53;;;;;;;8.36;95.01;101610.50;20991277;28;20063;-70
2022/02/23 10:35:30;;;;;;;14.80;2.75;;;;;;;9.24;95.50;101610.59;20983864;28;20049;-71
2022/02/23 10:45:31;;;;;;;8.98;2.30;;;;;;;9.52;84.98;101606.47;20989348;28;20045;-70
2022/02/23 10:55:34;;;;;;;9.38;2.65;;;;;;;9.55;90.61;101592.56;20988427;28;20485;-71
2022/02/23 11:05:36;;;;;;;10.85;2.47;;;;;;;9.78;80.01;101584.88;20986654;28;20048;-71
2022/02/23 11:15:43;;;;;;;6.90;2.30;;;;;;;10.10;76.11;101578.94;20986169;28;20482;-70
2022/02/23 11:25:48;;;;;;;11.50;2.30;;;;;;;10.43;72.58;101554.69;20985871;28;20044;-70
2022/02/23 11:35:51;;;;;;;10.65;2.22;;;;;;;10.27;74.69;101552.03;20984231;28;20102;-70
2022/02/23 11:45:55;;;;;;;8.30;1.67;;;;;;;10.23;74.73;101546.72;20983910;28;20067;-70
2022/02/23 11:56:16;;;;;;;8.13;2.05;;;;;;;10.33;75.61;101532.84;20983418;28;20551;-70
2022/02/23 12:07:12;;;;;;;9.05;2.20;;;;;;;10.03;71.37;101521.34;20975269;28;20501;-70
2022/02/23 12:17:44;;;;;;;5.68;1.55;;;;;;;10.38;73.54;101497.06;20974697;28;20044;-70
2022/02/23 12:27:46;;;;;;;8.13;1.85;;;;;;;10.42;72.29;101477.91;20980535;28;20555;-71
2022/02/23 12:37:49;;;;;;;7.60;2.10;;;;;;;10.73;69.97;101472.69;20983457;28;20056;-69
2022/02/23 12:47:55;;;;;;;8.68;2.03;;;;;;;10.79;67.71;101457.00;20980259;28;20110;-70
2022/02/23 12:57:57;;;;;;;7.97;2.40;;;;;;;10.75;69.57;101435.16;20969924;28;20048;-70
2022/02/23 13:07:58;;;;;;;5.78;1.88;;;;;;;10.83;63.55;101427.31;20976242;28;20048;-70
2022/02/23 13:18:08;;;;;;;7.63;2.17;;;;;;;10.84;65.23;101418.56;20974633;28;20053;-70
2022/02/23 13:28:11;;;;;;;13.02;2.00;;;;;;;10.95;66.20;101398.47;20977969;28;20051;-70
2022/02/23 13:38:12;;;;;;;10.70;2.13;;;;;;;11.10;66.12;101387.06;20977497;28;20044;-69
2022/02/23 13:48:14;;;;;;;11.07;2.42;;;;;;;11.08;65.92;101372.25;20959859;28;20090;-70
2022/02/23 13:58:19;;;;;;;7.63;2.15;;;;;;;11.10;63.64;101357.38;20974600;28;20098;-70
2022/02/23 14:08:50;;;;;;;8.18;2.20;;;;;;;11.15;63.99;101340.75;20974491;28;20044;-70
2022/02/23 14:18:53;;;;;;;8.55;1.77;;;;;;;11.02;61.42;101339.94;20963239;28;20053;-69
2022/02/23 14:29:04;;;;;;;9.65;2.05;;;;;;;10.92;65.26;101319.88;20970885;28;20497;-69
2022/02/23 14:39:06;;;;;;;6.60;1.60;;;;;;;11.23;60.49;101301.44;20973124;28;20052;-69
2022/02/23 14:49:07;;;;;;;10.55;1.85;;;;;;;11.36;58.49;101279.53;20980818;28;20049;-69
2022/02/23 14:59:09;;;;;;;8.43;1.95;;;;;;;11.30;59.11;101266.41;20987770;28;20060;-69
2022/02/23 15:09:12;;;;;;;7.82;1.73;;;;;;;11.18;56.95;101262.13;20986955;28;20194;-69
2022/02/23 15:19:13;;;;;;;6.72;1.60;;;;;;;11.04;56.29;101253.44;20984851;28;20063;-68
2022/02/23 15:29:15;;;;;;;6.55;1.50;;;;;;;11.11;54.64;101246.41;20984185;28;20056;-69
2022/02/23 15:39:17;;;;;;;7.57;1.70;;;;;;;10.89;56.04;101233.41;20978821;28;20060;-70
2022/02/23 15:49:24;;;;;;;10.15;2.10;;;;;;;11.02;56.94;101229.88;20983355;28;20040;-70
2022/02/23 15:59:26;;;;;;;5.72;1.55;;;;;;;10.90;58.12;101213.31;20983030;28;20485;-70
2022/02/23 16:09:27;;;;;;;6.43;1.80;;;;;;;10.68;57.22;101217.75;21017166;22;20520;-78
2022/02/23 16:19:36;;;;;;;7.60;1.73;;;;;;;10.61;58.18;101200.34;21015679;28;20445;-78
2022/02/23 16:29:38;;;;;;;6.13;1.40;;;;;;;10.20;58.99;101182.94;20995923;28;20048;-78
2022/02/23 16:39:40;;;;;;;7.50;1.42;;;;;;;9.98;62.46;101172.50;20973540;28;20878;-78
2022/02/23 16:49:42;;;;;;;8.10;1.88;;;;;;;9.57;66.33;101159.41;20991573;28;20052;-77
2022/02/23 16:59:44;;;;;;;6.03;1.75;;;;;;;9.02;69.28;101142.81;20990834;28;20056;-78
2022/02/23 17:09:46;;;;;;;13.95;4.88;;;;;;;8.54;75.89;101144.38;20971483;28;20048;-77
2022/02/23 17:19:49;;;;;;;8.23;2.17;;;;;;;8.13;78.19;101137.16;20992021;28;20044;-79
2022/02/23 17:29:51;;;;;;;8.57;2.45;;;;;;;7.90;78.37;101130.03;20972466;28;20132;-79
2022/02/23 17:39:53;;;;;;;9.93;2.80;;;;;;;7.61;83.96;101142.84;20987117;28;20048;-79
2022/02/23 17:49:55;;;;;;;9.10;2.97;;;;;;;7.30;84.71;101131.31;20988078;28;20044;-78
2022/02/23 17:59:56;;;;;;;18.80;9.15;;;;;;;7.10;85.87;101123.31;20968438;28;20523;-79
2022/02/23 18:09:58;;;;;;;31.05;15.55;;;;;;;6.92;86.71;101113.56;20995038;28;20111;-78
2022/02/23 18:19:59;;;;;;;19.10;10.43;;;;;;;6.73;87.18;101090.81;20976782;28;20129;-77
2022/02/23 18:30:14;;;;;;;23.90;10.52;;;;;;;6.55;90.04;101082.78;21003236;28;20044;-78
2022/02/23 18:40:15;;;;;;;24.20;12.60;;;;;;;6.42;89.21;101069.66;20972253;28;20057;-78
2022/02/23 18:50:17;;;;;;;25.88;11.82;;;;;;;6.26;88.13;101072.03;20902368;28;20107;-78
2022/02/23 19:00:20;;;;;;;32.45;13.32;;;;;;;6.15;91.84;101056.28;20977325;28;20063;-78
2022/02/23 19:10:22;;;;;;;22.52;10.65;;;;;;;6.19;92.46;101045.09;20981766;28;20048;-78
2022/02/23 19:20:24;;;;;;;20.42;8.93;;;;;;;6.17;91.63;101036.38;20983437;28;20055;-79
2022/02/23 19:30:26;;;;;;;27.25;14.75;;;;;;;6.14;93.83;101044.16;20974141;28;20076;-78
2022/02/23 19:40:27;;;;;;;34.38;18.25;;;;;;;6.07;94.08;101029.31;21002304;28;20102;-78
2022/02/23 19:50:35;;;;;;;57.88;28.35;;;;;;;5.94;94.48;101022.22;20985175;28;20561;-78
2022/02/23 20:00:41;;;;;;;86.80;39.05;;;;;;;5.79;95.37;101023.72;20979129;28;20150;-78
2022/02/23 20:10:44;;;;;;;54.13;24.83;;;;;;;5.57;95.11;101011.28;20997651;28;20087;-78
2022/02/23 20:20:51;;;;;;;32.30;16.20;;;;;;;5.36;96.95;100997.13;20978069;28;20139;-78
2022/02/23 20:30:54;;;;;;;16.45;7.43;;;;;;;5.14;96.48;100995.06;20948116;28;20044;-79
2022/02/23 20:41:13;;;;;;;9.45;5.32;;;;;;;4.91;97.91;100996.41;20970581;28;20051;-78
2022/02/23 20:51:18;;;;;;;15.95;5.97;;;;;;;4.81;97.62;101004.03;20947353;28;20102;-78
2022/02/23 21:01:20;;;;;;;13.88;5.53;;;;;;;4.97;97.76;100989.59;20993050;28;20044;-79
2022/02/23 21:11:21;;;;;;;13.88;7.00;;;;;;;4.88;96.76;100992.03;20971488;28;20099;-78
2022/02/23 21:21:23;;;;;;;13.00;4.85;;;;;;;4.66;97.84;100985.63;20975562;28;20547;-79
2022/02/23 21:31:24;;;;;;;11.70;4.32;;;;;;;4.41;99.78;100989.47;20954444;28;20102;-78
2022/02/23 21:41:26;;;;;;;8.73;4.20;;;;;;;4.50;99.58;100978.38;20975473;28;20048;-78
2022/02/23 21:51:28;;;;;;;11.57;4.78;;;;;;;4.55;100.00;100972.47;20998207;28;20048;-78
2022/02/23 22:01:30;;;;;;;15.85;6.60;;;;;;;4.55;100.00;100987.13;20996411;28;20051;-78
2022/02/23 22:11:32;;;;;;;13.40;7.70;;;;;;;4.42;100.00;100974.81;20966121;28;20040;-78
2022/02/23 22:21:34;;;;;;;19.30;8.82;;;;;;;4.44;100.00;100981.75;20988276;28;20048;-78
2022/02/23 22:31:35;;;;;;;15.60;7.82;;;;;;;4.59;100.00;100976.81;20970372;28;20056;-78
2022/02/23 22:41:37;;;;;;;18.92;7.57;;;;;;;4.74;100.00;100972.75;20989093;28;20562;-78
2022/02/23 22:51:38;;;;;;;20.63;10.65;;;;;;;4.73;100.00;100940.75;20988181;28;20110;-78
2022/02/23 23:01:40;;;;;;;16.23;7.85;;;;;;;4.60;100.00;100938.81;20967710;28;20089;-78
2022/02/23 23:11:42;;;;;;;23.50;10.90;;;;;;;4.67;100.00;100939.78;20993768;28;20080;-78
2022/02/23 23:21:43;;;;;;;18.77;8.68;;;;;;;4.73;100.00;100938.16;20987291;28;20040;-78
2022/02/23 23:31:45;;;;;;;19.88;6.68;;;;;;;4.95;100.00;100926.41;21003734;28;20048;-78
2022/02/23 23:41:46;;;;;;;14.32;6.03;;;;;;;5.11;100.00;100911.94;20993700;28;20079;-78
2022/02/23 23:51:48;;;;;;;22.08;8.48;;;;;;;5.25;100.00;100913.03;20986536;28;20049;-77
